createdAt,value
2024-02-05T00:01:10.177Z,288.40
2024-02-05T00:03:38.308Z,234.37
2024-02-05T00:06:06.793Z,146.07
2024-02-05T00:08:35.693Z,457.13
2024-02-05T00:11:06.288Z,327.07
2024-02-05T00:13:34.498Z,101.13
2024-02-05T00:16:03.143Z,184.17
2024-02-05T00:18:31.397Z,86.30
2024-02-05T00:20:59.371Z,86.27
2024-02-05T00:23:27.347Z,76.27
2024-02-05T00:25:55.360Z,56.00
2024-02-05T00:28:24.826Z,324.73
2024-02-05T00:30:52.823Z,266.97
2024-02-05T00:33:20.795Z,258.90
2024-02-05T00:35:48.849Z,233.17
2024-02-05T00:38:16.862Z,141.57
2024-02-05T00:40:45.902Z,338.83
2024-02-05T00:43:13.889Z,361.93
2024-02-05T00:45:43.292Z,116.80
2024-02-05T00:48:11.388Z,104.53
2024-02-05T00:50:39.369Z,392.30
2024-02-05T00:53:07.500Z,245.10
2024-02-05T00:55:35.455Z,84.27
2024-02-05T00:58:04.561Z,50.73
2024-02-05T01:00:32.701Z,91.20
2024-02-05T01:03:02.608Z,56.93
2024-02-05T01:05:30.732Z,52.43
2024-02-05T01:07:58.931Z,55.67
2024-02-05T01:10:26.961Z,59.13
2024-02-05T01:12:54.939Z,44.90
2024-02-05T01:15:22.976Z,47.97
2024-02-05T01:17:51.027Z,144.73
2024-02-05T01:20:20.457Z,118.13
2024-02-05T01:22:48.983Z,173.30
2024-02-05T01:25:17.125Z,73.43
2024-02-05T01:27:45.242Z,52.63
2024-02-05T01:30:14.643Z,69.70
2024-02-05T01:32:42.631Z,176.47
2024-02-05T01:35:11.367Z,87.47
2024-02-05T01:37:40.773Z,52.37
2024-02-05T01:40:11.573Z,64.47
2024-02-05T01:42:40.861Z,69.80
2024-02-05T01:45:10.415Z,40.13
2024-02-05T01:47:39.435Z,38.23
2024-02-05T01:50:10.786Z,27.27
2024-02-05T01:52:46.160Z,35.43
2024-02-05T01:55:16.164Z,26.17
2024-02-05T01:57:45.370Z,31.10
2024-02-05T02:00:16.081Z,46.63
2024-02-05T02:02:45.029Z,42.93
2024-02-05T02:05:14.332Z,38.30
2024-02-05T02:07:44.050Z,34.17
2024-02-05T02:10:12.362Z,18.40
2024-02-05T02:12:40.732Z,25.10
2024-02-05T02:15:09.543Z,17.40
2024-02-05T02:17:42.164Z,15.20
2024-02-05T02:20:11.973Z,23.93
2024-02-05T02:22:54.791Z,27.90
2024-02-05T02:25:24.626Z,18.60
2024-02-05T02:27:52.742Z,16.87
2024-02-05T02:30:23.093Z,14.33
2024-02-05T02:33:02.520Z,12.57
2024-02-05T02:35:35.593Z,13.73
2024-02-05T02:38:12.918Z,13.33
2024-02-05T02:40:43.086Z,13.13
2024-02-05T02:43:12.297Z,13.03
2024-02-05T02:45:40.677Z,13.03
2024-02-05T02:48:09.058Z,13.83
2024-02-05T02:50:37.202Z,14.93
2024-02-05T02:53:05.456Z,15.37
2024-02-05T02:55:33.400Z,15.47
2024-02-05T02:58:02.808Z,14.37
2024-02-05T03:00:30.904Z,12.57
2024-02-05T03:02:58.877Z,11.70
2024-02-05T03:05:27.471Z,10.53
2024-02-05T03:07:55.415Z,10.03
2024-02-05T03:10:23.455Z,10.20
2024-02-05T03:12:51.514Z,11.87
2024-02-05T03:15:21.848Z,11.67
2024-02-05T03:17:49.869Z,12.43
2024-02-05T03:20:34.784Z,11.77
2024-02-05T03:23:08.812Z,10.87
2024-02-05T03:25:38.869Z,11.53
2024-02-05T03:28:08.932Z,12.60
2024-02-05T03:30:39.504Z,11.40
2024-02-05T03:33:07.932Z,14.30
2024-02-05T03:35:36.599Z,12.47
2024-02-05T03:38:05.245Z,11.53
2024-02-05T03:40:33.255Z,13.00
2024-02-05T03:43:01.257Z,10.87
2024-02-05T03:45:30.079Z,14.03
2024-02-05T03:47:59.508Z,12.40
2024-02-05T03:50:27.498Z,13.10
2024-02-05T03:52:55.777Z,13.87
2024-02-05T03:55:23.778Z,12.87
2024-02-05T03:57:59.695Z,11.93
2024-02-05T04:00:27.910Z,12.37
2024-02-05T04:02:57.248Z,14.67
2024-02-05T04:05:29.700Z,12.73
2024-02-05T04:07:58.515Z,14.30
2024-02-05T04:10:27.152Z,12.73
2024-02-05T04:12:55.320Z,15.67
2024-02-05T04:15:23.505Z,17.60
2024-02-05T04:17:51.523Z,26.97
2024-02-05T04:20:20.792Z,28.47
2024-02-05T04:22:51.044Z,14.33
2024-02-05T04:25:19.295Z,11.93
2024-02-05T04:27:47.590Z,15.23
2024-02-05T04:30:17.397Z,13.30
2024-02-05T04:32:45.732Z,16.13
2024-02-05T04:35:13.972Z,11.17
2024-02-05T04:37:44.032Z,12.30
2024-02-05T04:40:13.850Z,11.67
2024-02-05T04:42:42.038Z,13.60
2024-02-05T04:45:11.027Z,11.00
2024-02-05T04:47:39.631Z,13.17
2024-02-05T04:50:08.763Z,11.27
2024-02-05T04:52:37.066Z,16.33
2024-02-05T04:55:05.645Z,13.40
2024-02-05T04:57:35.111Z,13.27
2024-02-05T05:00:03.285Z,13.17
2024-02-05T05:02:31.279Z,11.67
2024-02-05T05:04:59.258Z,14.47
2024-02-05T05:07:28.542Z,12.70
2024-02-05T05:09:56.583Z,11.50
2024-02-05T05:12:24.576Z,10.77
2024-02-05T05:14:53.874Z,12.70
2024-02-05T05:17:22.052Z,11.03
2024-02-05T05:19:50.167Z,14.30
2024-02-05T05:22:18.298Z,10.83
2024-02-05T05:24:46.591Z,14.40
2024-02-05T05:27:14.576Z,11.87
2024-02-05T05:29:42.537Z,11.40
2024-02-05T05:32:11.863Z,12.50
2024-02-05T05:34:40.156Z,32.50
2024-02-05T05:37:08.370Z,12.73
2024-02-05T05:39:36.514Z,19.27
2024-02-05T05:42:04.775Z,12.00
2024-02-05T05:44:32.752Z,11.77
2024-02-05T05:47:00.729Z,12.20
2024-02-05T05:49:30.714Z,14.43
2024-02-05T05:51:59.020Z,10.70
2024-02-05T05:54:27.333Z,11.03
2024-02-05T05:56:55.760Z,12.20
2024-02-05T05:59:23.856Z,9.70
2024-02-05T06:01:52.642Z,10.00
2024-02-05T06:04:20.711Z,9.73
2024-02-05T06:06:50.400Z,14.87
2024-02-05T06:09:19.928Z,11.90
2024-02-05T06:11:48.015Z,18.47
2024-02-05T06:14:16.046Z,22.53
2024-02-05T06:16:44.116Z,8.67
2024-02-05T06:19:12.136Z,8.13
2024-02-05T06:21:40.194Z,8.93
2024-02-05T06:24:09.657Z,10.17
2024-02-05T06:26:37.621Z,9.13
2024-02-05T06:29:05.547Z,10.27
2024-02-05T06:31:33.642Z,9.53
2024-02-05T06:34:02.555Z,13.20
2024-02-05T06:36:31.433Z,9.97
2024-02-05T06:38:59.406Z,10.37
2024-02-05T06:41:28.687Z,8.60
2024-02-05T06:43:56.694Z,10.30
2024-02-05T06:46:24.828Z,10.73
2024-02-05T06:48:52.971Z,10.83
2024-02-05T06:51:21.013Z,12.00
2024-02-05T06:53:49.109Z,11.57
2024-02-05T06:56:17.440Z,13.80
2024-02-05T06:58:46.791Z,12.53
2024-02-05T07:01:15.275Z,8.90
2024-02-05T07:03:43.385Z,11.33
2024-02-05T07:06:12.118Z,11.27
2024-02-05T07:08:40.320Z,11.47
2024-02-05T07:11:08.296Z,16.40
2024-02-05T07:13:36.679Z,9.90
2024-02-05T07:16:06.994Z,11.17
2024-02-05T07:18:35.137Z,108.63
2024-02-05T07:21:06.203Z,24.73
2024-02-05T07:23:34.267Z,13.43
2024-02-05T07:26:02.226Z,16.27
2024-02-05T07:28:30.963Z,18.30
2024-02-05T07:31:00.117Z,15.27
2024-02-05T07:33:29.440Z,50.90
2024-02-05T07:35:59.854Z,31.53
2024-02-05T07:38:28.009Z,230.40
2024-02-05T07:40:56.016Z,140.87
2024-02-05T07:43:24.408Z,45.07
2024-02-05T07:45:52.508Z,327.80
2024-02-05T07:48:21.154Z,392.07
2024-02-05T07:50:50.713Z,358.60
2024-02-05T07:53:18.729Z,352.57
2024-02-05T07:55:46.683Z,416.87
2024-02-05T07:58:14.782Z,326.10
2024-02-05T08:00:45.535Z,68.00
2024-02-05T08:03:14.563Z,142.20
2024-02-05T08:05:42.754Z,256.63
2024-02-05T08:08:12.166Z,227.47
2024-02-05T08:10:40.277Z,274.70
2024-02-05T08:13:08.483Z,285.67
2024-02-05T08:15:36.441Z,328.40
2024-02-05T08:18:04.717Z,185.43
2024-02-05T08:20:32.713Z,233.73
2024-02-05T08:23:00.666Z,172.83
2024-02-05T08:25:31.464Z,174.17
2024-02-05T08:28:01.094Z,123.80
2024-02-05T08:30:29.168Z,131.10
2024-02-05T08:32:57.239Z,109.87
2024-02-05T08:35:25.316Z,42.73
2024-02-05T08:37:54.056Z,34.53
2024-02-05T08:40:22.144Z,21.33
2024-02-05T08:42:51.532Z,32.27
2024-02-05T08:45:20.065Z,43.27
2024-02-05T08:47:48.111Z,45.90
2024-02-05T08:50:16.567Z,41.43
2024-02-05T08:52:44.676Z,92.03
2024-02-05T08:55:12.606Z,122.30
2024-02-05T08:57:43.380Z,46.80
2024-02-05T09:00:15.188Z,25.20
2024-02-05T09:02:43.361Z,48.73
2024-02-05T09:05:11.554Z,28.47
2024-02-05T09:07:40.736Z,30.30
2024-02-05T09:10:09.584Z,29.83
2024-02-05T09:12:37.612Z,32.03
2024-02-05T09:15:06.387Z,22.53
2024-02-05T09:17:35.816Z,35.17
2024-02-05T09:20:04.153Z,26.47
2024-02-05T09:22:35.012Z,34.53
2024-02-05T09:25:03.611Z,46.13
2024-02-05T09:27:31.650Z,26.57
2024-02-05T09:29:59.642Z,36.77
2024-02-05T09:32:27.681Z,27.70
2024-02-05T09:34:59.122Z,217.63
2024-02-05T09:37:27.320Z,30.73
2024-02-05T09:39:55.422Z,54.70
2024-02-05T09:42:23.425Z,246.67
2024-02-05T09:44:52.627Z,171.20
2024-02-05T09:47:21.809Z,157.97
2024-02-05T09:49:50.661Z,201.83
2024-02-05T09:52:21.063Z,202.17
2024-02-05T09:54:49.788Z,38.57
2024-02-05T09:57:18.992Z,85.53
2024-02-05T09:59:48.067Z,86.33
2024-02-05T10:02:18.021Z,64.07
2024-02-05T10:04:46.477Z,323.17
2024-02-05T10:07:16.184Z,56.87
2024-02-05T10:09:45.952Z,34.87
2024-02-05T10:12:14.995Z,50.20
2024-02-05T10:14:43.966Z,33.63
2024-02-05T10:17:12.626Z,59.10
2024-02-05T10:19:40.919Z,92.87
2024-02-05T10:22:10.319Z,162.67
2024-02-05T10:24:41.759Z,130.37
2024-02-05T10:27:16.883Z,25.90
2024-02-05T10:29:44.981Z,37.63
2024-02-05T10:32:12.947Z,196.27
2024-02-05T10:34:41.349Z,58.73
2024-02-05T10:37:11.786Z,71.53
2024-02-05T10:39:39.854Z,26.90
2024-02-05T10:42:07.868Z,74.90
2024-02-05T10:44:41.508Z,23.30
2024-02-05T10:47:11.029Z,34.83
2024-02-05T10:49:39.928Z,37.43
2024-02-05T10:52:11.181Z,45.73
2024-02-05T10:54:42.872Z,62.50
2024-02-05T10:57:11.348Z,25.10
2024-02-05T10:59:40.708Z,22.77
2024-02-05T11:02:15.719Z,23.33
2024-02-05T11:04:44.333Z,24.80
2024-02-05T11:07:18.381Z,23.23
2024-02-05T11:09:50.850Z,43.23
2024-02-05T11:12:23.757Z,24.80
2024-02-05T11:14:58.337Z,24.07
2024-02-05T11:17:27.288Z,32.60
2024-02-05T11:19:57.552Z,27.33
2024-02-05T11:22:26.786Z,28.33
2024-02-05T11:24:54.839Z,25.33
2024-02-05T11:27:22.907Z,25.97
2024-02-05T11:29:53.456Z,19.97
2024-02-05T11:32:31.481Z,29.27
2024-02-05T11:34:59.639Z,25.77
2024-02-05T11:37:28.964Z,28.63
2024-02-05T11:40:00.321Z,26.77
2024-02-05T11:42:29.873Z,30.13
2024-02-05T11:45:00.902Z,31.80
2024-02-05T11:47:29.485Z,37.07
2024-02-05T11:49:59.322Z,33.63
2024-02-05T11:52:27.598Z,27.77
2024-02-05T11:54:57.417Z,29.07
2024-02-05T11:57:26.467Z,36.97
2024-02-05T11:59:54.433Z,28.77
2024-02-05T12:02:24.707Z,27.43
2024-02-05T12:04:53.278Z,30.87
2024-02-05T12:07:24.130Z,25.37
2024-02-05T12:09:52.567Z,25.07
2024-02-05T12:12:21.175Z,25.87
2024-02-05T12:14:49.124Z,25.47
2024-02-05T12:17:17.319Z,26.93
2024-02-05T12:19:46.961Z,28.37
2024-02-05T12:22:16.034Z,23.80
2024-02-05T12:24:44.175Z,25.07
2024-02-05T12:27:12.158Z,22.33
2024-02-05T12:29:40.125Z,24.53
2024-02-05T12:32:08.969Z,24.40
2024-02-05T12:34:37.713Z,25.10
2024-02-05T12:37:08.441Z,26.10
2024-02-05T12:39:37.806Z,26.07
2024-02-05T12:42:06.415Z,27.23
2024-02-05T12:44:40.517Z,25.00
2024-02-05T12:47:12.670Z,24.83
2024-02-05T12:49:41.791Z,20.33
2024-02-05T12:52:11.638Z,24.20
2024-02-05T12:54:40.605Z,24.53
2024-02-05T12:57:09.559Z,21.30
2024-02-05T12:59:37.670Z,20.73
2024-02-05T13:02:07.325Z,18.30
2024-02-05T13:04:37.332Z,20.27
2024-02-05T13:07:09.689Z,19.27
2024-02-05T13:09:43.254Z,22.13
2024-02-05T13:12:13.565Z,21.33
2024-02-05T13:14:41.699Z,19.53
2024-02-05T13:17:09.722Z,19.87
2024-02-05T13:19:38.607Z,19.17
2024-02-05T13:22:07.803Z,18.90
2024-02-05T13:24:37.599Z,20.67
2024-02-05T13:27:07.305Z,16.23
2024-02-05T13:29:35.300Z,18.03
2024-02-05T13:32:03.404Z,20.73
2024-02-05T13:34:33.314Z,17.43
2024-02-05T13:37:01.768Z,21.40
2024-02-05T13:39:29.839Z,18.90
2024-02-05T13:41:58.144Z,19.50
2024-02-05T13:44:28.028Z,18.80
2024-02-05T13:46:56.028Z,20.67
2024-02-05T13:49:24.113Z,17.48
2024-02-05T13:51:52.351Z,18.03
2024-02-05T13:54:20.444Z,16.20
2024-02-05T13:56:50.412Z,16.23
2024-02-05T13:59:18.845Z,16.13
2024-02-05T14:01:52.982Z,16.77
2024-02-05T14:04:21.462Z,18.87
2024-02-05T14:06:49.662Z,21.90
2024-02-05T14:09:17.793Z,16.17
2024-02-05T14:11:45.773Z,16.95
2024-02-05T14:14:13.728Z,19.43
2024-02-05T14:16:41.821Z,16.67
2024-02-05T14:19:11.238Z,17.30
2024-02-05T14:21:41.534Z,19.45
2024-02-05T14:24:10.339Z,19.55
2024-02-05T14:26:39.072Z,18.77
2024-02-05T14:29:07.038Z,18.00
2024-02-05T14:31:35.097Z,16.98
2024-02-05T14:34:03.936Z,17.30
2024-02-05T14:36:33.511Z,15.15
2024-02-05T14:39:01.509Z,17.63
2024-02-05T14:41:29.515Z,16.05
2024-02-05T14:43:57.458Z,16.58
2024-02-05T14:46:25.516Z,14.10
2024-02-05T14:48:53.666Z,16.67
2024-02-05T14:51:21.786Z,16.67
2024-02-05T14:53:51.241Z,19.70
2024-02-05T14:56:19.219Z,18.58
2024-02-05T14:58:47.177Z,17.17
2024-02-05T15:01:15.251Z,17.45
2024-02-05T15:03:46.145Z,19.13
2024-02-05T15:06:14.404Z,17.50
2024-02-05T15:08:42.660Z,18.73
2024-02-05T15:11:12.603Z,19.05
2024-02-05T15:13:40.722Z,15.82
2024-02-05T15:16:09.909Z,18.30
2024-02-05T15:18:37.948Z,20.77
2024-02-05T15:21:06.099Z,15.15
2024-02-05T15:23:37.330Z,15.65
2024-02-05T15:26:05.589Z,15.20
2024-02-05T15:28:34.950Z,20.15
2024-02-05T15:31:03.129Z,17.40
2024-02-05T15:33:31.145Z,18.85
2024-02-05T15:35:59.245Z,16.92
2024-02-05T15:38:27.236Z,19.52
2024-02-05T15:40:55.207Z,20.30
2024-02-05T15:43:23.677Z,19.67
2024-02-05T15:45:53.164Z,17.77
2024-02-05T15:48:21.699Z,19.48
2024-02-05T15:50:49.849Z,18.60
2024-02-05T15:53:19.021Z,22.35
2024-02-05T15:55:48.177Z,14.68
2024-02-05T15:58:16.716Z,18.58
2024-02-05T16:00:45.454Z,13.32
2024-02-05T16:03:14.897Z,17.48
2024-02-05T16:05:42.970Z,18.50
2024-02-05T16:08:11.081Z,14.50
2024-02-05T16:10:39.331Z,18.63
2024-02-05T16:13:07.820Z,20.08
2024-02-05T16:15:35.872Z,19.50
2024-02-05T16:18:04.742Z,15.07
2024-02-05T16:20:35.717Z,17.45
2024-02-05T16:23:04.570Z,22.00
2024-02-05T16:25:35.567Z,19.83
2024-02-05T16:28:03.870Z,20.77
2024-02-05T16:30:34.049Z,18.40
2024-02-05T16:33:02.679Z,20.38
2024-02-05T16:35:30.784Z,22.13
2024-02-05T16:38:00.209Z,18.15
2024-02-05T16:40:28.358Z,19.08
2024-02-05T16:42:56.387Z,24.13
2024-02-05T16:45:24.396Z,20.73
2024-02-05T16:47:52.408Z,19.25
2024-02-05T16:50:20.654Z,19.70
2024-02-05T16:52:49.486Z,18.50
2024-02-05T16:55:19.005Z,20.07
2024-02-05T16:57:47.101Z,18.13
2024-02-05T17:00:15.684Z,17.67
2024-02-05T17:02:43.613Z,17.80
2024-02-05T17:05:11.938Z,21.80
2024-02-05T17:07:45.289Z,17.57
2024-02-05T17:10:13.735Z,18.53
2024-02-05T17:12:43.107Z,21.97
2024-02-05T17:15:11.151Z,22.77
2024-02-05T17:17:39.185Z,21.07
2024-02-05T17:20:08.534Z,18.77
2024-02-05T17:22:36.959Z,28.00
2024-02-05T17:25:05.441Z,22.97
2024-02-05T17:27:33.906Z,24.43
2024-02-05T17:30:03.320Z,25.10
2024-02-05T17:32:31.579Z,25.13
2024-02-05T17:35:01.204Z,23.70
2024-02-05T17:37:29.402Z,26.43
2024-02-05T17:39:57.556Z,23.37
2024-02-05T17:42:25.768Z,28.33
2024-02-05T17:44:53.700Z,21.27
2024-02-05T17:47:23.054Z,27.27
2024-02-05T17:49:51.112Z,22.17
2024-02-05T17:52:19.224Z,20.17
2024-02-05T17:54:47.262Z,27.07
2024-02-05T17:57:15.258Z,22.50
2024-02-05T17:59:43.397Z,30.20
2024-02-05T18:02:11.849Z,24.73
2024-02-05T18:04:41.415Z,21.43
2024-02-05T18:07:09.549Z,24.03
2024-02-05T18:09:37.570Z,22.23
2024-02-05T18:12:08.358Z,22.77
2024-02-05T18:14:37.181Z,21.07
2024-02-05T18:17:05.675Z,21.57
2024-02-05T18:19:33.946Z,23.47
2024-02-05T18:22:03.369Z,21.53
2024-02-05T18:24:37.965Z,20.83
2024-02-05T18:27:13.653Z,25.47
2024-02-05T18:29:41.604Z,23.93
2024-02-05T18:32:09.558Z,26.97
2024-02-05T18:34:42.396Z,26.67
2024-02-05T18:37:14.453Z,30.37
2024-02-05T18:39:42.706Z,25.83
2024-02-05T18:42:10.724Z,29.40
2024-02-05T18:44:38.698Z,27.07
2024-02-05T18:47:07.578Z,24.23
2024-02-05T18:49:35.622Z,25.77
2024-02-05T18:52:07.835Z,27.57
2024-02-05T18:54:39.189Z,26.33
2024-02-05T18:57:09.902Z,25.87
2024-02-05T18:59:37.937Z,26.67
2024-02-05T19:02:06.083Z,32.30
2024-02-05T19:04:34.128Z,35.80
2024-02-05T19:07:02.109Z,32.30
2024-02-05T19:09:30.164Z,35.90
2024-02-05T19:11:59.686Z,69.83
2024-02-05T19:14:27.666Z,37.67
2024-02-05T19:16:55.714Z,99.70
2024-02-05T19:19:23.849Z,24.73
2024-02-05T19:21:52.107Z,22.17
2024-02-05T19:24:20.504Z,24.43
2024-02-05T19:26:50.021Z,28.00
2024-02-05T19:29:21.300Z,28.73
2024-02-05T19:31:49.574Z,25.97
2024-02-05T19:34:20.238Z,23.90
2024-02-05T19:36:48.273Z,21.03
2024-02-05T19:39:16.360Z,27.50
2024-02-05T19:41:44.518Z,25.57
2024-02-05T19:44:12.601Z,30.73
2024-02-05T19:46:42.108Z,26.30
2024-02-05T19:49:10.269Z,27.23
2024-02-05T19:51:38.238Z,138.83
2024-02-05T19:54:06.766Z,25.63
2024-02-05T19:56:34.703Z,98.23
2024-02-05T19:59:02.791Z,110.03
2024-02-05T20:01:31.044Z,161.30
2024-02-05T20:04:00.626Z,30.23
2024-02-05T20:06:28.730Z,16.73
2024-02-05T20:08:56.730Z,24.03
2024-02-05T20:11:24.724Z,20.50
2024-02-05T20:13:52.681Z,24.20
2024-02-05T20:16:27.499Z,20.23
2024-02-05T20:18:56.288Z,21.90
2024-02-05T20:21:26.232Z,26.27
2024-02-05T20:23:55.828Z,24.43
2024-02-05T20:26:24.215Z,27.10
2024-02-05T20:28:52.199Z,24.70
2024-02-05T20:31:20.231Z,22.77
2024-02-05T20:33:48.266Z,22.60
2024-02-05T20:36:16.226Z,24.27
2024-02-05T20:38:45.993Z,28.33
2024-02-05T20:41:14.234Z,29.87
2024-02-05T20:43:46.542Z,36.63
2024-02-05T20:46:15.230Z,40.40
2024-02-05T20:48:43.204Z,36.10
2024-02-05T20:51:11.236Z,39.67
2024-02-05T20:53:39.387Z,27.40
2024-02-05T20:56:09.091Z,40.37
2024-02-05T20:58:37.181Z,32.83
2024-02-05T21:01:05.587Z,27.40
2024-02-05T21:03:36.739Z,27.80
2024-02-05T21:06:05.655Z,26.17
2024-02-05T21:08:34.328Z,24.57
2024-02-05T21:11:04.450Z,23.83
2024-02-05T21:13:34.675Z,23.87
2024-02-05T21:16:02.990Z,25.60
2024-02-05T21:18:31.211Z,23.43
2024-02-05T21:20:59.522Z,25.00
2024-02-05T21:23:27.524Z,28.20
2024-02-05T21:25:55.451Z,32.87
2024-02-05T21:28:23.481Z,51.83
2024-02-05T21:30:52.892Z,45.33
2024-02-05T21:33:20.921Z,36.97
2024-02-05T21:35:49.006Z,30.10
2024-02-05T21:38:17.028Z,30.17
2024-02-05T21:40:45.404Z,35.70
2024-02-05T21:43:13.532Z,44.07
2024-02-05T21:45:41.620Z,31.83
2024-02-05T21:48:11.722Z,27.33
2024-02-05T21:50:40.627Z,24.80
2024-02-05T21:53:08.718Z,21.53
2024-02-05T21:55:36.847Z,24.47
2024-02-05T21:58:05.113Z,27.30
2024-02-05T22:00:33.160Z,33.07
2024-02-05T22:03:01.169Z,32.13
2024-02-05T22:05:30.652Z,34.93
2024-02-05T22:07:58.806Z,31.03
2024-02-05T22:10:26.738Z,26.77
2024-02-05T22:12:54.819Z,30.43
2024-02-05T22:15:22.842Z,27.40
2024-02-05T22:17:51.916Z,27.07
2024-02-05T22:20:20.206Z,21.30
2024-02-05T22:22:49.578Z,24.70
2024-02-05T22:25:18.564Z,23.60
2024-02-05T22:27:46.727Z,23.10
2024-02-05T22:30:15.410Z,28.90
2024-02-05T22:32:43.395Z,28.23
2024-02-05T22:35:11.734Z,34.83
2024-02-05T22:37:39.851Z,24.30
2024-02-05T22:40:10.841Z,24.53
2024-02-05T22:42:39.164Z,26.20
2024-02-05T22:45:08.660Z,28.70
2024-02-05T22:47:36.906Z,27.07
2024-02-05T22:50:05.920Z,34.23
2024-02-05T22:52:35.577Z,35.53
2024-02-05T22:55:04.685Z,32.57
2024-02-05T22:57:34.547Z,32.80
2024-02-05T23:00:03.050Z,35.63
2024-02-05T23:02:31.899Z,37.70
2024-02-05T23:05:00.037Z,35.30
2024-02-05T23:07:28.090Z,31.53
2024-02-05T23:09:56.037Z,26.27
2024-02-05T23:12:24.223Z,30.50
2024-02-05T23:14:53.577Z,33.27
2024-02-05T23:17:21.530Z,28.43
2024-02-05T23:19:49.578Z,30.87
2024-02-05T23:22:17.909Z,31.10
2024-02-05T23:24:46.174Z,24.90
2024-02-05T23:27:14.088Z,28.13
2024-02-05T23:29:42.236Z,26.63
2024-02-05T23:32:11.599Z,22.40
2024-02-05T23:34:39.851Z,25.77
2024-02-05T23:37:08.398Z,20.30
2024-02-05T23:39:37.455Z,20.57
2024-02-05T23:42:05.996Z,28.10
2024-02-05T23:44:33.925Z,19.77
2024-02-05T23:47:01.909Z,23.20
2024-02-05T23:49:31.389Z,25.23
2024-02-05T23:51:59.427Z,22.80
2024-02-05T23:54:27.399Z,19.07
2024-02-05T23:56:55.735Z,22.00
2024-02-05T23:59:23.791Z,21.63
